createdAt,value
2022-10-08T00:02:12.626Z,10.43
2022-10-08T00:04:40.824Z,10.90
2022-10-08T00:07:09.069Z,9.15
2022-10-08T00:09:38.545Z,10.45
2022-10-08T00:12:06.685Z,10.13
2022-10-08T00:14:34.719Z,9.05
2022-10-08T00:17:02.948Z,9.70
2022-10-08T00:19:31.079Z,9.20
2022-10-08T00:21:59.040Z,9.35
2022-10-08T00:24:27.842Z,9.55
2022-10-08T00:26:57.344Z,9.77
2022-10-08T00:29:25.363Z,8.80
2022-10-08T00:31:53.462Z,9.85
2022-10-08T00:34:35.717Z,8.73
2022-10-08T00:37:03.857Z,9.48
2022-10-08T00:39:31.977Z,9.30
2022-10-08T00:42:02.213Z,8.90
2022-10-08T00:44:55.078Z,9.07
2022-10-08T00:47:42.873Z,8.98
2022-10-08T00:50:18.641Z,8.82
2022-10-08T00:52:49.897Z,9.15
2022-10-08T00:55:21.153Z,8.10
2022-10-08T00:57:52.169Z,8.73
2022-10-08T01:00:23.834Z,8.82
2022-10-08T01:02:52.283Z,8.50
2022-10-08T01:05:30.402Z,8.13
2022-10-08T01:08:06.011Z,8.35
2022-10-08T01:10:40.128Z,7.63
2022-10-08T01:13:20.619Z,7.50
2022-10-08T01:15:54.961Z,8.00
2022-10-08T01:18:30.241Z,7.63
2022-10-08T01:21:05.955Z,7.85
2022-10-08T01:23:48.920Z,6.85
2022-10-08T01:29:00.036Z,7.68
2022-10-08T01:31:32.420Z,6.45
2022-10-08T01:34:04.466Z,6.20
2022-10-08T01:36:39.066Z,6.50
2022-10-08T01:39:11.238Z,5.95
2022-10-08T01:41:41.486Z,6.07
2022-10-08T01:44:16.396Z,6.30
2022-10-08T01:46:46.955Z,6.45
2022-10-08T01:49:22.073Z,6.00
2022-10-08T01:51:54.791Z,5.53
2022-10-08T01:56:53.691Z,5.75
2022-10-08T01:59:27.022Z,5.85
2022-10-08T02:02:02.843Z,5.85
2022-10-08T02:04:36.982Z,6.15
2022-10-08T02:07:08.737Z,5.50
2022-10-08T02:09:39.915Z,5.97
2022-10-08T02:12:09.012Z,5.75
2022-10-08T02:14:42.291Z,5.93
2022-10-08T02:17:23.199Z,5.60
2022-10-08T02:19:54.917Z,5.93
2022-10-08T02:22:30.427Z,5.22
2022-10-08T02:25:02.025Z,5.20
2022-10-08T02:27:39.394Z,4.97
2022-10-08T02:30:11.682Z,4.90
2022-10-08T02:32:49.253Z,5.38
2022-10-08T02:35:22.822Z,4.22
2022-10-08T02:37:57.203Z,4.63
2022-10-08T02:40:25.999Z,4.28
2022-10-08T02:42:59.945Z,4.55
2022-10-08T02:45:33.395Z,4.45
2022-10-08T02:48:06.783Z,3.97
2022-10-08T02:50:37.340Z,4.43
2022-10-08T02:53:05.742Z,4.60
2022-10-08T02:55:42.576Z,4.25
2022-10-08T02:58:13.397Z,5.15
2022-10-08T03:00:50.857Z,4.47
2022-10-08T03:03:27.352Z,4.80
2022-10-08T03:05:55.939Z,5.03
2022-10-08T03:08:30.093Z,5.05
2022-10-08T03:10:59.702Z,4.82
2022-10-08T03:13:29.196Z,4.63
2022-10-08T03:15:59.533Z,4.97
2022-10-08T03:18:28.117Z,4.90
2022-10-08T03:20:58.308Z,4.78
2022-10-08T03:23:26.452Z,4.53
2022-10-08T03:25:55.000Z,4.63
2022-10-08T03:28:23.129Z,4.97
2022-10-08T03:30:51.295Z,4.05
2022-10-08T03:33:20.867Z,3.80
2022-10-08T03:35:49.109Z,4.38
2022-10-08T03:38:17.635Z,4.50
2022-10-08T03:40:54.659Z,4.32
2022-10-08T03:43:23.186Z,4.32
2022-10-08T03:45:52.515Z,4.65
2022-10-08T03:48:23.333Z,4.45
2022-10-08T03:50:53.588Z,4.68
2022-10-08T03:53:21.920Z,4.22
2022-10-08T03:55:50.298Z,4.20
2022-10-08T03:58:19.109Z,4.82
2022-10-08T04:00:58.252Z,4.90
2022-10-08T04:03:28.941Z,5.10
2022-10-08T04:05:57.284Z,5.20
2022-10-08T04:08:25.873Z,4.85
2022-10-08T04:10:54.413Z,4.90
2022-10-08T04:13:23.209Z,5.30
2022-10-08T04:15:53.568Z,4.93
2022-10-08T04:18:21.651Z,5.05
2022-10-08T04:20:51.141Z,4.70
2022-10-08T04:23:19.156Z,4.63
2022-10-08T04:25:51.901Z,4.60
2022-10-08T04:30:56.679Z,5.38
2022-10-08T04:33:25.250Z,5.60
2022-10-08T04:35:59.858Z,5.22
2022-10-08T04:38:29.710Z,5.22
2022-10-08T04:41:05.434Z,5.90
2022-10-08T04:43:33.916Z,5.43
2022-10-08T04:46:02.013Z,5.20
2022-10-08T04:48:30.167Z,5.45
2022-10-08T04:51:01.804Z,5.97
2022-10-08T04:53:30.572Z,5.80
2022-10-08T04:55:59.117Z,6.45
2022-10-08T04:58:27.653Z,5.70
2022-10-08T05:00:55.733Z,5.95
2022-10-08T05:03:23.829Z,6.07
2022-10-08T05:05:51.886Z,6.00
2022-10-08T05:08:21.390Z,5.65
2022-10-08T05:10:50.062Z,5.80
2022-10-08T05:13:18.313Z,6.13
2022-10-08T05:15:46.682Z,5.60
2022-10-08T05:18:15.110Z,6.15
2022-10-08T05:20:43.165Z,6.05
2022-10-08T05:23:11.473Z,5.82
2022-10-08T05:25:41.071Z,6.45
2022-10-08T05:28:29.625Z,5.20
2022-10-08T05:31:01.449Z,5.18
2022-10-08T05:33:29.915Z,5.60
2022-10-08T05:35:58.008Z,6.05
2022-10-08T05:38:26.137Z,5.53
2022-10-08T05:40:55.697Z,5.28
2022-10-08T05:43:23.817Z,5.28
2022-10-08T05:45:52.167Z,5.85
2022-10-08T05:48:20.278Z,5.65
2022-10-08T05:50:48.305Z,6.03
2022-10-08T05:53:16.358Z,6.00
2022-10-08T05:55:44.520Z,6.00
2022-10-08T05:58:13.949Z,6.10
2022-10-08T06:00:41.935Z,6.05
2022-10-08T06:03:11.227Z,5.68
2022-10-08T06:05:39.313Z,5.85
2022-10-08T06:08:07.357Z,5.78
2022-10-08T06:10:35.570Z,5.40
2022-10-08T06:13:03.704Z,6.78
2022-10-08T06:15:33.157Z,6.22
2022-10-08T06:18:02.921Z,6.45
2022-10-08T06:20:32.056Z,6.70
2022-10-08T06:23:00.290Z,5.82
2022-10-08T06:25:28.328Z,6.55
2022-10-08T06:27:57.262Z,6.15
2022-10-08T06:30:25.386Z,6.78
2022-10-08T06:32:54.982Z,6.53
2022-10-08T06:35:23.073Z,6.72
2022-10-08T06:37:51.242Z,6.38
2022-10-08T06:40:19.477Z,6.28
2022-10-08T06:42:47.839Z,6.18
2022-10-08T06:45:16.227Z,6.50
2022-10-08T06:47:44.314Z,5.82
2022-10-08T06:50:13.719Z,6.57
2022-10-08T06:52:41.767Z,6.18
2022-10-08T06:55:09.935Z,5.68
2022-10-08T06:57:37.990Z,5.45
2022-10-08T07:00:07.129Z,6.00
2022-10-08T07:02:35.286Z,5.80
2022-10-08T07:05:03.326Z,5.75
2022-10-08T07:07:33.014Z,6.03
2022-10-08T07:10:01.094Z,5.85
2022-10-08T07:12:29.173Z,6.15
2022-10-08T07:14:57.201Z,7.70
2022-10-08T07:17:26.437Z,6.97
2022-10-08T07:19:54.482Z,7.30
2022-10-08T07:22:22.576Z,6.70
2022-10-08T07:24:52.068Z,7.25
2022-10-08T07:27:21.306Z,6.20
2022-10-08T07:29:49.353Z,6.60
2022-10-08T07:32:17.430Z,6.55
2022-10-08T07:34:45.518Z,6.65
2022-10-08T07:37:13.583Z,5.63
2022-10-08T07:39:41.659Z,6.05
2022-10-08T07:42:11.121Z,7.00
2022-10-08T07:44:39.085Z,6.57
2022-10-08T07:47:08.219Z,5.68
2022-10-08T07:49:36.301Z,5.78
2022-10-08T07:52:04.591Z,6.93
2022-10-08T07:54:32.634Z,5.88
2022-10-08T07:57:02.237Z,5.68
2022-10-08T07:59:31.742Z,5.10
2022-10-08T08:01:59.957Z,5.45
2022-10-08T08:04:28.052Z,5.90
2022-10-08T08:06:56.170Z,5.82
2022-10-08T08:09:24.522Z,6.50
2022-10-08T08:11:52.890Z,5.53
2022-10-08T08:14:21.573Z,5.40
2022-10-08T08:16:51.088Z,5.70
2022-10-08T08:19:19.121Z,6.60
2022-10-08T08:21:47.144Z,5.38
2022-10-08T08:24:15.213Z,5.68
2022-10-08T08:26:44.289Z,5.53
2022-10-08T08:29:13.905Z,6.28
2022-10-08T08:31:44.333Z,6.43
2022-10-08T08:34:15.893Z,6.25
2022-10-08T08:36:46.240Z,6.65
2022-10-08T08:39:17.339Z,6.10
2022-10-08T08:42:00.256Z,6.15
2022-10-08T08:47:02.704Z,6.07
2022-10-08T08:49:37.318Z,5.70
2022-10-08T08:52:07.645Z,5.90
2022-10-08T08:54:35.779Z,5.93
2022-10-08T08:57:17.321Z,6.43
2022-10-08T08:59:47.694Z,6.45
2022-10-08T09:02:23.809Z,6.68
2022-10-08T09:04:58.109Z,6.53
2022-10-08T09:07:29.130Z,5.80
2022-10-08T09:10:00.678Z,5.40
2022-10-08T09:12:34.493Z,6.43
2022-10-08T09:15:04.116Z,5.95
2022-10-08T09:17:34.054Z,5.40
2022-10-08T09:20:04.383Z,6.03
2022-10-08T09:22:37.659Z,6.13
2022-10-08T09:25:08.472Z,5.68
2022-10-08T09:27:51.673Z,6.03
2022-10-08T09:30:45.259Z,5.07
2022-10-08T09:33:23.653Z,5.60
2022-10-08T09:35:55.197Z,5.60
2022-10-08T09:38:25.168Z,6.10
2022-10-08T09:41:05.907Z,5.30
2022-10-08T09:43:35.172Z,6.35
2022-10-08T09:46:12.064Z,6.05
2022-10-08T09:48:41.802Z,5.90
2022-10-08T09:51:17.435Z,5.72
2022-10-08T09:53:48.564Z,6.25
2022-10-08T09:56:27.408Z,5.63
2022-10-08T09:58:58.552Z,5.40
2022-10-08T10:01:31.330Z,5.85
2022-10-08T10:04:02.577Z,6.15
2022-10-08T10:06:34.323Z,6.57
2022-10-08T10:09:24.746Z,6.83
2022-10-08T10:11:56.534Z,6.55
2022-10-08T10:14:27.786Z,6.38
2022-10-08T10:17:01.395Z,6.50
2022-10-08T10:19:33.599Z,6.03
2022-10-08T10:22:09.690Z,6.00
2022-10-08T10:25:02.879Z,6.40
2022-10-08T10:27:35.670Z,7.30
2022-10-08T10:30:19.106Z,6.38
2022-10-08T10:32:52.186Z,6.13
2022-10-08T10:35:25.467Z,6.97
2022-10-08T10:37:59.401Z,7.22
2022-10-08T10:40:37.810Z,6.82
2022-10-08T10:43:21.982Z,6.95
2022-10-08T10:45:54.836Z,7.25
2022-10-08T10:48:22.825Z,6.35
2022-10-08T10:51:14.628Z,5.97
2022-10-08T10:53:54.190Z,6.88
2022-10-08T10:56:26.293Z,6.85
2022-10-08T10:59:19.024Z,6.15
2022-10-08T11:01:54.827Z,6.70
2022-10-08T11:04:36.184Z,5.18
2022-10-08T11:07:10.820Z,5.88
2022-10-08T11:09:46.030Z,6.28
2022-10-08T11:12:27.224Z,5.78
2022-10-08T11:15:02.381Z,5.47
2022-10-08T11:17:50.128Z,5.40
2022-10-08T11:20:44.908Z,5.10
2022-10-08T11:23:23.885Z,5.45
2022-10-08T11:29:01.446Z,5.68
2022-10-08T11:31:41.471Z,5.95
2022-10-08T11:34:25.550Z,6.55
2022-10-08T11:37:05.053Z,6.45
2022-10-08T11:39:42.666Z,7.05
2022-10-08T11:42:17.961Z,6.50
2022-10-08T11:44:47.354Z,6.63
2022-10-08T11:47:49.189Z,7.45
2022-10-08T11:50:27.084Z,7.13
2022-10-08T11:52:58.722Z,7.45
2022-10-08T11:55:29.928Z,10.10
2022-10-08T11:58:09.069Z,9.80
2022-10-08T12:00:44.216Z,9.98
2022-10-08T12:03:24.253Z,10.57
2022-10-08T12:05:54.281Z,9.82
2022-10-08T12:08:54.793Z,9.32
2022-10-08T12:11:54.235Z,10.18
2022-10-08T12:14:47.366Z,10.93
2022-10-08T12:20:02.041Z,10.25
2022-10-08T12:22:44.597Z,12.45
2022-10-08T12:25:39.365Z,10.63
2022-10-08T12:28:47.323Z,10.32
2022-10-08T12:31:28.955Z,9.30
2022-10-08T12:34:04.325Z,10.10
2022-10-08T12:36:45.089Z,10.30
2022-10-08T12:39:23.993Z,9.45
2022-10-08T12:41:59.471Z,9.30
2022-10-08T12:44:36.368Z,8.93
2022-10-08T12:47:23.392Z,9.95
2022-10-08T12:49:57.972Z,8.95
2022-10-08T12:52:27.136Z,9.70
2022-10-08T12:54:57.297Z,9.27
2022-10-08T12:57:30.185Z,9.68
2022-10-08T13:00:00.109Z,10.43
2022-10-08T13:02:35.065Z,10.73
2022-10-08T13:05:04.838Z,10.98
2022-10-08T13:07:34.968Z,12.02
2022-10-08T13:10:17.751Z,12.23
2022-10-08T13:12:59.035Z,11.27
2022-10-08T13:15:27.114Z,12.20
2022-10-08T13:17:55.030Z,14.13
2022-10-08T13:20:24.999Z,18.13
2022-10-08T13:22:53.084Z,16.50
2022-10-08T13:26:26.303Z,15.98
2022-10-08T13:29:26.379Z,15.68
2022-10-08T13:32:08.705Z,17.52
2022-10-08T13:35:01.559Z,16.92
2022-10-08T13:37:34.887Z,16.00
2022-10-08T13:40:06.188Z,16.77
2022-10-08T13:42:35.766Z,18.67
2022-10-08T13:45:06.340Z,20.50
2022-10-08T13:47:34.853Z,18.20
2022-10-08T13:50:08.456Z,20.90
2022-10-08T13:52:42.120Z,19.20
2022-10-08T13:55:26.222Z,18.40
2022-10-08T13:57:54.418Z,19.73
2022-10-08T14:00:22.806Z,21.88
2022-10-08T14:02:51.575Z,25.33
2022-10-08T14:05:19.680Z,25.33
2022-10-08T14:07:52.268Z,22.48
2022-10-08T14:10:20.592Z,21.80
2022-10-08T14:12:48.937Z,23.77
2022-10-08T14:15:18.701Z,25.33
2022-10-08T14:17:47.051Z,22.15
2022-10-08T14:20:15.430Z,20.67
2022-10-08T14:22:43.723Z,37.22
2022-10-08T14:25:17.373Z,34.90
2022-10-08T14:27:46.236Z,40.00
2022-10-08T14:30:16.128Z,24.83
2022-10-08T14:32:44.129Z,23.73
2022-10-08T14:35:12.689Z,25.38
2022-10-08T14:37:40.684Z,25.00
2022-10-08T14:40:10.356Z,24.45
2022-10-08T14:42:39.832Z,24.58
2022-10-08T14:45:08.632Z,24.48
2022-10-08T14:47:36.570Z,24.92
2022-10-08T14:50:05.091Z,24.48
2022-10-08T14:52:33.136Z,21.58
2022-10-08T14:55:01.230Z,22.63
2022-10-08T14:57:29.371Z,27.45
2022-10-08T14:59:58.741Z,22.25
2022-10-08T15:02:29.139Z,31.90
2022-10-08T15:05:02.024Z,26.95
2022-10-08T15:07:32.953Z,24.70
2022-10-08T15:10:01.010Z,19.63
2022-10-08T15:12:29.225Z,19.00
2022-10-08T15:14:58.714Z,15.10
2022-10-08T15:17:26.791Z,14.43
2022-10-08T15:19:54.998Z,18.05
2022-10-08T15:22:23.107Z,16.08
2022-10-08T15:24:54.944Z,16.80
2022-10-08T15:27:23.022Z,16.87
2022-10-08T15:29:51.040Z,17.20
2022-10-08T15:32:20.358Z,18.20
2022-10-08T15:34:48.247Z,18.08
2022-10-08T15:37:16.223Z,17.65
2022-10-08T15:39:46.830Z,15.55
2022-10-08T15:42:14.755Z,16.70
2022-10-08T15:44:46.244Z,22.55
2022-10-08T15:47:16.415Z,18.40
2022-10-08T15:49:46.232Z,19.33
2022-10-08T15:52:16.415Z,17.48
2022-10-08T15:54:45.089Z,18.65
2022-10-08T15:57:15.234Z,18.63
2022-10-08T15:59:43.541Z,17.40
2022-10-08T16:02:16.650Z,18.35
2022-10-08T16:04:48.418Z,17.85
2022-10-08T16:07:16.624Z,17.20
2022-10-08T16:09:44.566Z,18.65
2022-10-08T16:12:12.497Z,21.38
2022-10-08T16:14:40.501Z,21.08
2022-10-08T16:17:09.224Z,20.27
2022-10-08T16:19:37.331Z,19.27
2022-10-08T16:22:07.919Z,19.50
2022-10-08T16:24:35.958Z,18.08
2022-10-08T16:27:03.972Z,16.83
2022-10-08T16:29:31.890Z,17.30
2022-10-08T16:31:59.876Z,17.77
2022-10-08T16:34:28.685Z,17.02
2022-10-08T16:36:59.242Z,18.23
2022-10-08T16:39:28.573Z,19.80
2022-10-08T16:41:56.441Z,18.17
2022-10-08T16:44:24.450Z,18.85
2022-10-08T16:46:53.808Z,17.30
2022-10-08T16:49:26.319Z,18.65
2022-10-08T16:51:55.757Z,19.20
2022-10-08T16:54:23.906Z,19.25
2022-10-08T16:56:53.776Z,18.45
2022-10-08T16:59:23.942Z,19.38
2022-10-08T17:01:54.093Z,17.67
2022-10-08T17:04:23.801Z,17.92
2022-10-08T17:06:51.859Z,17.40
2022-10-08T17:09:20.440Z,17.92
2022-10-08T17:11:48.451Z,20.25
2022-10-08T17:14:18.049Z,21.08
2022-10-08T17:16:46.186Z,19.25
2022-10-08T17:19:14.536Z,17.50
2022-10-08T17:21:42.887Z,17.13
2022-10-08T17:24:12.740Z,16.33
2022-10-08T17:26:41.743Z,14.85
2022-10-08T17:29:11.678Z,16.20
2022-10-08T17:31:41.414Z,15.30
2022-10-08T17:34:10.097Z,13.25
2022-10-08T17:36:40.903Z,14.00
2022-10-08T17:39:12.543Z,12.85
2022-10-08T17:41:41.918Z,12.48
2022-10-08T17:44:11.341Z,12.27
2022-10-08T17:46:45.344Z,9.90
2022-10-08T17:49:14.251Z,10.90
2022-10-08T17:51:42.388Z,10.95
2022-10-08T17:54:14.737Z,28.80
2022-10-08T17:56:43.068Z,18.25
2022-10-08T17:59:14.615Z,17.13
2022-10-08T18:01:45.570Z,20.73
2022-10-08T18:04:15.609Z,15.73
2022-10-08T18:06:46.074Z,10.73
2022-10-08T18:09:16.060Z,12.05
2022-10-08T18:11:45.903Z,10.93
2022-10-08T18:14:14.306Z,10.90
2022-10-08T18:16:47.918Z,15.27
2022-10-08T18:19:16.889Z,12.05
2022-10-08T18:21:44.860Z,9.32
2022-10-08T18:24:12.888Z,10.48
2022-10-08T18:26:40.836Z,11.95
2022-10-08T18:29:10.833Z,13.07
2022-10-08T18:31:40.328Z,14.70
2022-10-08T18:34:13.859Z,12.38
2022-10-08T18:36:41.883Z,10.32
2022-10-08T18:39:13.373Z,10.82
2022-10-08T18:41:42.903Z,10.90
2022-10-08T18:44:13.994Z,10.75
2022-10-08T18:46:42.536Z,11.18
2022-10-08T18:49:13.957Z,10.60
2022-10-08T18:51:42.034Z,10.88
2022-10-08T18:54:11.223Z,17.77
2022-10-08T18:56:41.174Z,16.58
2022-10-08T18:59:12.099Z,11.68
2022-10-08T19:01:41.741Z,11.93
2022-10-08T19:04:15.210Z,16.17
2022-10-08T19:06:44.641Z,15.20
2022-10-08T19:09:12.843Z,14.57
2022-10-08T19:11:44.933Z,14.57
2022-10-08T19:14:15.828Z,15.35
2022-10-08T19:16:48.836Z,14.35
2022-10-08T19:19:21.005Z,12.80
2022-10-08T19:21:49.813Z,13.02
2022-10-08T19:24:20.047Z,11.15
2022-10-08T19:26:51.070Z,8.48
2022-10-08T19:29:35.945Z,7.68
2022-10-08T19:32:16.363Z,7.35
2022-10-08T19:34:54.609Z,7.50
2022-10-08T19:37:27.807Z,7.53
2022-10-08T19:43:20.116Z,10.18
2022-10-08T19:45:58.285Z,8.85
2022-10-08T19:51:57.401Z,8.93
2022-10-08T19:54:42.697Z,9.68
2022-10-08T19:57:16.196Z,8.95
2022-10-08T19:59:47.296Z,9.30
2022-10-08T20:02:18.097Z,9.02
2022-10-08T20:04:55.520Z,9.70
2022-10-08T20:07:34.042Z,9.70
2022-10-08T20:10:05.365Z,9.55
2022-10-08T20:12:51.234Z,9.32
2022-10-08T20:15:37.143Z,9.20
2022-10-08T20:18:16.511Z,8.68
2022-10-08T20:20:51.663Z,9.52
2022-10-08T20:23:33.717Z,10.13
2022-10-08T20:26:12.729Z,9.30
2022-10-08T20:28:46.485Z,9.48
2022-10-08T20:31:18.699Z,9.27
2022-10-08T20:33:48.603Z,9.32
2022-10-08T20:36:21.627Z,10.05
2022-10-08T20:38:57.835Z,9.38
2022-10-08T20:41:31.443Z,9.48
2022-10-08T20:44:02.394Z,10.07
2022-10-08T20:46:31.081Z,9.85
2022-10-08T20:49:03.107Z,8.93
2022-10-08T20:51:32.622Z,8.77
2022-10-08T20:54:07.630Z,7.70
2022-10-08T20:56:40.560Z,7.75
2022-10-08T20:59:09.190Z,7.82
2022-10-08T21:01:45.813Z,7.00
2022-10-08T21:04:15.805Z,7.13
2022-10-08T21:06:45.478Z,7.35
2022-10-08T21:09:18.270Z,7.50
2022-10-08T21:11:47.154Z,8.15
2022-10-08T21:14:24.036Z,8.00
2022-10-08T21:16:54.688Z,7.35
2022-10-08T21:19:23.327Z,8.02
2022-10-08T21:21:53.554Z,8.05
2022-10-08T21:24:25.602Z,8.43
2022-10-08T21:26:56.669Z,9.15
2022-10-08T21:29:26.874Z,8.15
2022-10-08T21:31:55.242Z,7.22
2022-10-08T21:34:23.605Z,7.35
2022-10-08T21:36:51.786Z,6.10
2022-10-08T21:39:21.212Z,6.38
2022-10-08T21:41:55.973Z,6.00
2022-10-08T21:44:32.130Z,6.10
2022-10-08T21:47:04.335Z,5.47
2022-10-08T21:49:32.661Z,5.45
2022-10-08T21:52:03.534Z,5.05
2022-10-08T21:54:31.718Z,4.55
2022-10-08T21:57:04.452Z,4.82
2022-10-08T22:02:07.639Z,4.25
2022-10-08T22:04:40.765Z,4.40
2022-10-08T22:07:09.072Z,3.63
2022-10-08T22:09:41.773Z,4.47
2022-10-08T22:14:43.727Z,4.60
2022-10-08T22:17:14.767Z,4.22
2022-10-08T22:19:48.145Z,5.07
2022-10-08T22:22:16.366Z,4.65
2022-10-08T22:24:46.598Z,3.92
2022-10-08T22:27:19.339Z,4.13
2022-10-08T22:29:50.763Z,4.30
2022-10-08T22:32:22.260Z,4.60
2022-10-08T22:34:50.469Z,4.65
2022-10-08T22:37:18.743Z,4.55
2022-10-08T22:39:47.074Z,4.35
2022-10-08T22:42:20.247Z,4.43
2022-10-08T22:44:48.508Z,4.10
2022-10-08T22:47:19.739Z,4.65
2022-10-08T22:49:47.752Z,3.92
2022-10-08T22:52:15.896Z,3.65
2022-10-08T22:54:47.209Z,3.80
2022-10-08T22:57:19.994Z,3.75
2022-10-08T22:59:50.367Z,4.68
2022-10-08T23:02:18.466Z,3.58
2022-10-08T23:04:48.471Z,3.75
2022-10-08T23:07:19.311Z,3.53
2022-10-08T23:09:50.341Z,3.28
2022-10-08T23:12:20.054Z,3.50
2022-10-08T23:14:49.684Z,3.47
2022-10-08T23:17:17.862Z,2.65
2022-10-08T23:19:45.979Z,3.05
2022-10-08T23:22:13.957Z,3.83
2022-10-08T23:24:41.919Z,3.80
2022-10-08T23:27:10.230Z,2.97
2022-10-08T23:29:39.941Z,3.45
2022-10-08T23:32:08.164Z,2.80
2022-10-08T23:34:36.954Z,3.03
2022-10-08T23:37:05.090Z,3.30
2022-10-08T23:39:33.365Z,3.67
2022-10-08T23:42:01.365Z,3.72
2022-10-08T23:44:29.511Z,3.10
2022-10-08T23:47:00.909Z,2.97
2022-10-08T23:49:28.938Z,2.70
2022-10-08T23:51:57.038Z,2.70
2022-10-08T23:54:25.478Z,2.60
2022-10-08T23:56:56.807Z,2.47
2022-10-08T23:59:27.759Z,3.13
